createdAt,value
2019-04-27T00:00:16.348Z,84.91
2019-04-27T00:03:02.218Z,84.71
2019-04-27T00:05:39.704Z,84.73
2019-04-27T00:08:16.989Z,84.80
2019-04-27T00:10:55.499Z,84.26
2019-04-27T00:13:24.326Z,84.32
2019-04-27T00:16:09.919Z,84.52
2019-04-27T00:18:49.473Z,84.66
2019-04-27T00:21:23.714Z,84.77
2019-04-27T00:23:53.178Z,84.84
2019-04-27T00:26:23.320Z,85.02
2019-04-27T00:28:53.635Z,85.27
2019-04-27T00:31:23.407Z,85.55
2019-04-27T00:33:53.533Z,85.54
2019-04-27T00:36:29.332Z,85.78
2019-04-27T00:39:20.352Z,86.12
2019-04-27T00:41:48.870Z,86.59
2019-04-27T00:44:17.493Z,86.73
2019-04-27T00:46:46.026Z,86.93
2019-04-27T00:49:14.730Z,87.58
2019-04-27T00:51:43.491Z,87.33
2019-04-27T00:54:13.553Z,87.55
2019-04-27T00:57:03.076Z,87.52
2019-04-27T00:59:50.219Z,87.77
2019-04-27T01:02:33.173Z,88.31
2019-04-27T01:05:07.646Z,88.23
2019-04-27T01:07:36.184Z,88.00
2019-04-27T01:10:05.301Z,87.38
2019-04-27T01:12:34.085Z,86.74
2019-04-27T01:15:03.675Z,85.79
2019-04-27T01:17:32.466Z,86.17
2019-04-27T01:20:01.175Z,86.55
2019-04-27T01:22:29.689Z,86.49
2019-04-27T01:24:59.417Z,86.91
2019-04-27T01:27:39.362Z,87.16
2019-04-27T01:30:15.576Z,87.23
2019-04-27T01:32:44.091Z,87.56
2019-04-27T01:35:12.703Z,87.04
2019-04-27T01:37:41.205Z,86.91
2019-04-27T01:40:09.907Z,87.37
2019-04-27T01:42:39.518Z,87.22
2019-04-27T01:45:08.622Z,85.29
2019-04-27T01:47:39.058Z,85.80
2019-04-27T01:50:08.716Z,85.78
2019-04-27T01:52:38.534Z,86.46
2019-04-27T01:55:08.620Z,86.90
2019-04-27T01:57:38.630Z,86.94
2019-04-27T02:00:27.084Z,87.37
2019-04-27T02:02:59.526Z,87.33
2019-04-27T02:05:33.358Z,87.35
2019-04-27T02:08:01.919Z,88.19
2019-04-27T02:10:30.514Z,87.91
2019-04-27T02:12:59.247Z,88.07
2019-04-27T02:15:29.348Z,88.76
2019-04-27T02:17:59.648Z,88.38
2019-04-27T02:20:29.979Z,88.30
2019-04-27T02:22:58.813Z,88.36
2019-04-27T02:25:29.342Z,88.37
2019-04-27T02:28:03.926Z,88.65
2019-04-27T02:31:01.840Z,88.73
2019-04-27T02:33:37.130Z,89.15
2019-04-27T02:36:05.735Z,88.33
2019-04-27T02:38:34.256Z,87.09
2019-04-27T02:41:03.663Z,85.64
2019-04-27T02:43:55.230Z,86.22
2019-04-27T02:46:23.855Z,85.16
2019-04-27T02:48:59.727Z,85.21
2019-04-27T02:51:30.257Z,84.80
2019-04-27T02:54:00.330Z,83.81
2019-04-27T02:56:30.501Z,84.19
2019-04-27T02:58:59.767Z,84.60
2019-04-27T03:01:31.237Z,84.30
2019-04-27T03:04:00.491Z,84.11
2019-04-27T03:06:30.161Z,83.59
2019-04-27T03:09:00.487Z,84.08
2019-04-27T03:11:30.924Z,83.07
2019-04-27T03:14:36.060Z,83.60
2019-04-27T03:17:10.672Z,82.68
2019-04-27T03:19:44.422Z,83.08
2019-04-27T03:22:22.296Z,83.14
2019-04-27T03:25:05.296Z,83.14
2019-04-27T03:27:35.233Z,83.32
2019-04-27T03:30:04.284Z,83.20
2019-04-27T03:32:33.014Z,82.92
2019-04-27T03:35:03.356Z,83.00
2019-04-27T03:37:32.409Z,82.50
2019-04-27T03:40:01.143Z,81.97
2019-04-27T03:42:31.216Z,81.87
2019-04-27T03:45:00.585Z,82.67
2019-04-27T03:47:30.650Z,82.99
2019-04-27T03:50:00.206Z,82.57
2019-04-27T03:52:35.675Z,83.05
2019-04-27T03:58:13.957Z,84.55
2019-04-27T04:00:42.594Z,85.70
2019-04-27T04:03:11.340Z,84.90
2019-04-27T04:05:40.043Z,84.69
2019-04-27T04:08:10.737Z,84.42
2019-04-27T04:10:43.340Z,84.28
2019-04-27T04:13:16.960Z,84.36
2019-04-27T04:15:55.800Z,84.50
2019-04-27T04:18:25.379Z,84.19
2019-04-27T04:20:53.966Z,84.46
2019-04-27T04:23:22.482Z,84.42
2019-04-27T04:25:51.177Z,84.14
2019-04-27T04:28:20.178Z,84.48
2019-04-27T04:30:50.108Z,83.31
2019-04-27T04:33:20.544Z,83.29
2019-04-27T04:35:49.949Z,83.86
2019-04-27T04:38:20.602Z,84.14
2019-04-27T04:40:56.501Z,83.66
2019-04-27T04:43:36.861Z,83.09
2019-04-27T04:46:24.165Z,81.41
2019-04-27T04:48:52.671Z,80.28
2019-04-27T04:51:21.198Z,79.85
2019-04-27T04:53:51.871Z,78.37
2019-04-27T04:56:20.228Z,78.24
2019-04-27T04:58:49.714Z,77.97
2019-04-27T05:01:19.694Z,77.41
2019-04-27T05:03:48.830Z,77.08
2019-04-27T05:06:18.932Z,76.68
2019-04-27T05:08:49.263Z,76.03
2019-04-27T05:11:19.584Z,75.54
2019-04-27T05:13:49.425Z,75.14
2019-04-27T05:16:18.887Z,74.61
2019-04-27T05:18:49.415Z,74.62
2019-04-27T05:21:31.296Z,74.35
2019-04-27T05:24:00.747Z,73.94
2019-04-27T05:26:29.585Z,73.82
2019-04-27T05:28:59.290Z,73.83
2019-04-27T05:31:29.311Z,73.85
2019-04-27T05:33:59.349Z,74.13
2019-04-27T05:36:29.649Z,73.66
2019-04-27T05:38:59.750Z,72.91
2019-04-27T05:41:31.185Z,72.94
2019-04-27T05:44:19.041Z,72.85
2019-04-27T05:47:05.306Z,72.91
2019-04-27T05:49:44.517Z,72.65
2019-04-27T05:52:31.271Z,72.13
2019-04-27T05:54:59.761Z,71.90
2019-04-27T05:57:31.203Z,71.50
2019-04-27T06:00:02.135Z,71.93
2019-04-27T06:02:30.192Z,71.92
2019-04-27T06:05:00.079Z,71.36
2019-04-27T06:07:29.669Z,71.93
2019-04-27T06:09:59.841Z,71.47
2019-04-27T06:12:29.667Z,70.82
2019-04-27T06:14:59.874Z,70.30
2019-04-27T06:17:29.880Z,69.72
2019-04-27T06:19:59.675Z,70.33
2019-04-27T06:22:29.179Z,70.08
2019-04-27T06:24:59.708Z,69.71
2019-04-27T06:27:30.696Z,69.61
2019-04-27T06:29:59.446Z,69.32
2019-04-27T06:32:29.575Z,69.34
2019-04-27T06:34:59.019Z,68.89
2019-04-27T06:37:29.326Z,69.20
2019-04-27T06:39:59.654Z,69.12
2019-04-27T06:42:29.650Z,68.96
2019-04-27T06:44:59.903Z,69.05
2019-04-27T06:47:29.452Z,69.24
2019-04-27T06:49:58.779Z,69.48
2019-04-27T06:52:29.118Z,69.75
2019-04-27T06:54:57.990Z,69.70
2019-04-27T06:57:26.478Z,70.21
2019-04-27T06:59:55.200Z,70.59
2019-04-27T07:02:23.952Z,70.71
2019-04-27T07:04:52.555Z,71.40
2019-04-27T07:07:21.068Z,72.42
2019-04-27T07:09:49.599Z,73.19
2019-04-27T07:12:19.113Z,74.67
2019-04-27T07:14:54.375Z,75.66
2019-04-27T07:17:19.049Z,77.89
2019-04-27T07:19:49.573Z,80.58
2019-04-27T07:22:20.042Z,81.69
2019-04-27T07:24:49.147Z,82.65
2019-04-27T07:27:19.138Z,83.60
2019-04-27T07:29:49.468Z,84.96
2019-04-27T07:32:19.276Z,84.84
2019-04-27T07:34:49.648Z,85.51
2019-04-27T07:37:19.532Z,85.94
2019-04-27T07:39:49.228Z,86.55
2019-04-27T07:42:19.279Z,85.99
2019-04-27T07:45:00.019Z,86.32
2019-04-27T07:47:31.075Z,87.06
2019-04-27T07:50:01.459Z,85.99
2019-04-27T07:52:30.111Z,86.21
2019-04-27T07:54:58.856Z,86.19
2019-04-27T07:57:28.980Z,86.46
2019-04-27T07:59:59.497Z,85.83
2019-04-27T08:02:29.141Z,85.95
2019-04-27T08:04:59.434Z,86.42
2019-04-27T08:07:29.114Z,85.84
2019-04-27T08:10:01.191Z,86.59
2019-04-27T08:12:28.889Z,86.03
2019-04-27T08:14:57.500Z,86.21
2019-04-27T08:17:26.137Z,86.37
2019-04-27T08:19:54.652Z,85.85
2019-04-27T08:22:23.185Z,85.20
2019-04-27T08:24:51.728Z,85.60
2019-04-27T08:27:29.477Z,85.58
2019-04-27T08:30:05.828Z,86.16
2019-04-27T08:32:39.077Z,85.71
2019-04-27T08:35:09.565Z,85.84
2019-04-27T08:37:38.705Z,84.79
2019-04-27T08:40:09.308Z,84.19
2019-04-27T08:42:39.175Z,83.71
2019-04-27T08:45:09.430Z,83.79
2019-04-27T08:47:39.470Z,83.17
2019-04-27T08:50:09.321Z,83.38
2019-04-27T08:52:41.408Z,83.18
2019-04-27T08:55:09.990Z,83.39
2019-04-27T08:57:38.882Z,83.58
2019-04-27T09:00:09.432Z,83.80
2019-04-27T09:02:44.532Z,84.30
2019-04-27T09:05:09.600Z,83.47
2019-04-27T09:07:44.204Z,83.95
2019-04-27T09:10:38.904Z,84.53
2019-04-27T09:13:19.829Z,84.63
2019-04-27T09:16:00.058Z,85.02
2019-04-27T09:18:32.386Z,86.43
2019-04-27T09:21:01.950Z,86.60
2019-04-27T09:23:30.460Z,87.44
2019-04-27T09:25:59.557Z,88.35
2019-04-27T09:28:29.458Z,88.78
2019-04-27T09:30:58.892Z,89.04
2019-04-27T09:33:27.569Z,89.03
2019-04-27T09:35:56.688Z,89.17
2019-04-27T09:38:26.434Z,89.38
2019-04-27T09:40:55.905Z,89.59
2019-04-27T09:43:26.415Z,89.57
2019-04-27T09:45:55.784Z,88.89
2019-04-27T09:48:25.969Z,89.54
2019-04-27T09:50:56.005Z,89.24
2019-04-27T09:53:24.871Z,89.07
2019-04-27T09:55:53.429Z,88.27
2019-04-27T09:58:22.084Z,87.69
2019-04-27T10:00:50.604Z,88.19
2019-04-27T10:03:19.131Z,87.61
2019-04-27T10:05:47.995Z,87.78
2019-04-27T10:08:17.017Z,85.99
2019-04-27T10:10:45.968Z,85.68
2019-04-27T10:13:16.309Z,85.85
2019-04-27T10:15:45.931Z,86.07
2019-04-27T10:18:16.304Z,86.51
2019-04-27T10:20:58.198Z,87.42
2019-04-27T10:23:15.546Z,87.78
2019-04-27T10:25:45.687Z,88.12
2019-04-27T10:28:14.391Z,88.90
2019-04-27T10:30:43.027Z,89.63
2019-04-27T10:33:11.545Z,90.73
2019-04-27T10:35:40.167Z,86.00
2019-04-27T10:38:08.763Z,88.13
2019-04-27T10:40:37.279Z,88.62
2019-04-27T10:43:06.406Z,90.34
2019-04-27T10:45:35.782Z,90.22
2019-04-27T10:48:05.913Z,88.75
2019-04-27T10:50:36.461Z,88.12
2019-04-27T10:53:06.968Z,87.90
2019-04-27T10:55:36.305Z,88.39
2019-04-27T10:58:05.195Z,88.15
2019-04-27T11:00:39.517Z,87.62
2019-04-27T11:03:08.200Z,88.08
2019-04-27T11:05:56.949Z,86.93
2019-04-27T11:08:25.801Z,87.51
2019-04-27T11:10:56.287Z,88.26
2019-04-27T11:13:25.764Z,88.82
2019-04-27T11:15:54.378Z,88.53
2019-04-27T11:18:22.989Z,87.71
2019-04-27T11:20:51.598Z,88.62
2019-04-27T11:23:20.298Z,88.81
2019-04-27T11:25:48.830Z,89.46
2019-04-27T11:28:17.389Z,89.03
2019-04-27T11:30:45.933Z,85.89
2019-04-27T11:33:16.184Z,88.54
2019-04-27T11:35:53.835Z,86.04
2019-04-27T11:38:22.469Z,86.14
2019-04-27T11:40:51.091Z,85.75
2019-04-27T11:43:19.730Z,85.69
2019-04-27T11:45:48.261Z,85.58
2019-04-27T11:48:16.805Z,86.52
2019-04-27T11:50:45.918Z,85.11
2019-04-27T11:53:22.871Z,83.64
2019-04-27T11:55:45.448Z,82.68
2019-04-27T11:58:13.949Z,84.61
2019-04-27T12:00:42.589Z,84.42
2019-04-27T12:03:11.207Z,83.27
2019-04-27T12:05:39.986Z,84.31
2019-04-27T12:08:08.626Z,84.49
2019-04-27T12:10:37.273Z,86.95
2019-04-27T12:13:07.799Z,84.46
2019-04-27T12:15:36.461Z,84.35
2019-04-27T12:18:08.807Z,83.71
2019-04-27T12:20:35.952Z,85.40
2019-04-27T12:23:06.509Z,84.10
2019-04-27T12:25:37.279Z,84.25
2019-04-27T12:28:12.665Z,84.03
2019-04-27T12:31:08.767Z,83.70
2019-04-27T12:33:37.232Z,83.73
2019-04-27T12:36:06.728Z,81.52
2019-04-27T12:38:36.562Z,82.78
2019-04-27T12:41:06.782Z,82.08
2019-04-27T12:43:37.267Z,82.95
2019-04-27T12:46:06.212Z,81.48
2019-04-27T12:48:37.073Z,80.46
2019-04-27T12:51:05.739Z,78.78
2019-04-27T12:53:49.348Z,74.81
2019-04-27T12:56:30.655Z,67.12
2019-04-27T12:59:09.704Z,64.28
2019-04-27T13:01:38.343Z,63.92
2019-04-27T13:04:07.076Z,68.82
2019-04-27T13:06:35.872Z,68.10
2019-04-27T13:09:07.110Z,64.70
2019-04-27T13:11:36.647Z,59.17
2019-04-27T13:14:06.218Z,56.52
2019-04-27T13:16:35.063Z,51.29
2019-04-27T13:19:03.597Z,48.17
2019-04-27T13:21:32.309Z,48.27
2019-04-27T13:24:04.420Z,44.05
2019-04-27T13:26:31.402Z,45.83
2019-04-27T13:28:59.926Z,48.22
2019-04-27T13:31:28.581Z,43.72
2019-04-27T13:33:57.132Z,44.66
2019-04-27T13:36:26.585Z,45.81
2019-04-27T13:38:55.965Z,45.05
2019-04-27T13:41:30.423Z,44.11
2019-04-27T13:43:57.188Z,44.55
2019-04-27T13:46:35.219Z,44.06
2019-04-27T13:49:12.328Z,42.14
2019-04-27T13:52:06.486Z,44.54
2019-04-27T13:54:35.122Z,45.22
2019-04-27T13:57:04.100Z,47.76
2019-04-27T13:59:32.736Z,50.13
2019-04-27T14:02:01.476Z,46.01
2019-04-27T14:04:30.026Z,43.01
2019-04-27T14:06:59.063Z,43.01
2019-04-27T14:09:27.771Z,41.78
2019-04-27T14:12:03.651Z,44.29
2019-04-27T14:14:32.275Z,50.56
2019-04-27T14:17:00.944Z,51.87
2019-04-27T14:19:29.450Z,52.37
2019-04-27T14:21:59.080Z,51.07
2019-04-27T14:24:40.215Z,49.53
2019-04-27T14:27:09.472Z,49.38
2019-04-27T14:29:39.162Z,50.25
2019-04-27T14:32:08.710Z,50.04
2019-04-27T14:34:37.253Z,45.31
2019-04-27T14:37:05.887Z,44.42
2019-04-27T14:39:34.611Z,49.32
2019-04-27T14:42:03.236Z,51.86
2019-04-27T14:44:31.864Z,53.21
2019-04-27T14:47:00.375Z,52.18
2019-04-27T14:49:29.098Z,52.83
2019-04-27T14:51:58.517Z,54.34
2019-04-27T14:54:30.168Z,53.19
2019-04-27T14:56:58.939Z,54.22
2019-04-27T14:59:27.550Z,55.14
2019-04-27T15:01:56.178Z,57.24
2019-04-27T15:04:24.737Z,60.05
2019-04-27T15:06:53.366Z,60.89
2019-04-27T15:09:23.917Z,59.65
2019-04-27T15:11:53.461Z,60.27
2019-04-27T15:14:23.946Z,61.15
2019-04-27T15:16:52.817Z,59.36
2019-04-27T15:19:27.455Z,58.40
2019-04-27T15:21:58.891Z,57.34
2019-04-27T15:24:26.658Z,56.25
2019-04-27T15:27:00.787Z,56.07
2019-04-27T15:29:28.046Z,56.86
2019-04-27T15:32:03.986Z,59.25
2019-04-27T15:34:53.795Z,62.50
2019-04-27T15:37:53.732Z,63.96
2019-04-27T15:40:31.277Z,65.30
2019-04-27T15:43:14.640Z,64.97
2019-04-27T15:45:43.288Z,68.29
2019-04-27T15:48:11.797Z,66.06
2019-04-27T15:50:40.442Z,68.47
2019-04-27T15:53:12.339Z,69.38
2019-04-27T15:55:39.792Z,72.43
2019-04-27T15:58:09.806Z,72.19
2019-04-27T16:00:38.565Z,73.53
2019-04-27T16:03:08.018Z,72.71
2019-04-27T16:05:37.655Z,73.54
2019-04-27T16:08:12.572Z,73.00
2019-04-27T16:10:40.032Z,72.35
2019-04-27T16:13:10.020Z,70.24
2019-04-27T16:15:38.348Z,69.17
2019-04-27T16:18:08.746Z,67.36
2019-04-27T16:20:38.114Z,66.78
2019-04-27T16:23:08.759Z,67.00
2019-04-27T16:25:47.462Z,67.40
2019-04-27T16:28:11.586Z,68.79
2019-04-27T16:30:39.384Z,68.27
2019-04-27T16:33:08.689Z,67.04
2019-04-27T16:35:38.712Z,66.51
2019-04-27T16:38:33.592Z,66.88
2019-04-27T16:41:03.297Z,66.90
2019-04-27T16:43:32.889Z,66.16
2019-04-27T16:46:04.230Z,65.33
2019-04-27T16:48:34.523Z,64.65
2019-04-27T16:51:02.558Z,66.28
2019-04-27T16:53:39.454Z,69.42
2019-04-27T16:56:14.203Z,69.36
2019-04-27T16:58:39.388Z,68.03
2019-04-27T17:01:18.376Z,67.76
2019-04-27T17:03:48.509Z,65.32
2019-04-27T17:06:21.043Z,65.81
2019-04-27T17:08:49.609Z,64.64
2019-04-27T17:11:19.609Z,63.63
2019-04-27T17:13:54.124Z,62.89
2019-04-27T17:16:40.166Z,63.00
2019-04-27T17:19:18.061Z,64.56
2019-04-27T17:21:48.390Z,66.20
2019-04-27T17:24:37.465Z,66.27
2019-04-27T17:27:04.191Z,66.81
2019-04-27T17:29:36.130Z,64.60
2019-04-27T17:32:05.270Z,63.70
2019-04-27T17:34:33.874Z,63.58
2019-04-27T17:37:02.519Z,62.09
2019-04-27T17:39:31.234Z,64.05
2019-04-27T17:41:59.842Z,64.90
2019-04-27T17:44:28.822Z,63.83
2019-04-27T17:46:57.470Z,63.03
2019-04-27T17:49:27.958Z,63.51
2019-04-27T17:51:58.571Z,62.05
2019-04-27T17:54:29.018Z,62.84
2019-04-27T17:56:58.083Z,63.58
2019-04-27T17:59:26.596Z,64.48
2019-04-27T18:02:00.935Z,65.49
2019-04-27T18:04:25.847Z,63.97
2019-04-27T18:06:55.545Z,66.52
2019-04-27T18:09:24.997Z,70.38
2019-04-27T18:11:54.496Z,76.16
2019-04-27T18:17:10.356Z,80.95
2019-04-27T18:19:44.292Z,81.83
2019-04-27T18:22:13.490Z,85.15
2019-04-27T18:24:50.929Z,85.79
2019-04-27T18:27:37.765Z,87.21
2019-04-27T18:30:15.106Z,87.90
2019-04-27T18:32:43.807Z,86.99
2019-04-27T18:35:12.546Z,87.65
2019-04-27T18:37:41.064Z,87.63
2019-04-27T18:40:09.804Z,87.10
2019-04-27T18:42:38.556Z,88.10
2019-04-27T18:45:08.345Z,88.63
2019-04-27T18:47:40.526Z,88.49
2019-04-27T18:50:29.115Z,86.83
2019-04-27T18:53:10.224Z,88.24
2019-04-27T18:55:38.739Z,87.79
2019-04-27T18:58:09.089Z,87.26
2019-04-27T19:00:38.190Z,88.38
2019-04-27T19:03:06.849Z,88.19
2019-04-27T19:05:40.156Z,89.45
2019-04-27T19:08:06.009Z,89.94
2019-04-27T19:10:34.760Z,88.10
2019-04-27T19:13:03.547Z,89.84
2019-04-27T19:15:33.403Z,90.36
2019-04-27T19:18:02.058Z,90.57
2019-04-27T19:20:30.566Z,91.00
2019-04-27T19:22:59.824Z,90.82
2019-04-27T19:25:35.985Z,90.69
2019-04-27T19:28:28.297Z,90.71
2019-04-27T19:31:04.622Z,91.19
2019-04-27T19:33:33.217Z,91.39
2019-04-27T19:36:02.017Z,91.36
2019-04-27T19:38:30.558Z,91.46
2019-04-27T19:40:59.310Z,91.38
2019-04-27T19:43:28.472Z,91.26
2019-04-27T19:45:58.424Z,91.04
2019-04-27T19:48:28.661Z,90.75
2019-04-27T19:50:57.331Z,90.94
2019-04-27T19:53:25.850Z,91.31
2019-04-27T19:56:03.301Z,90.92
2019-04-27T19:58:38.077Z,90.66
2019-04-27T20:01:14.580Z,88.60
2019-04-27T20:03:49.039Z,89.38
2019-04-27T20:06:18.823Z,89.96
2019-04-27T20:08:49.817Z,90.23
2019-04-27T20:11:18.431Z,89.83
2019-04-27T20:13:46.933Z,89.34
2019-04-27T20:16:15.457Z,90.28
2019-04-27T20:18:44.186Z,90.21
2019-04-27T20:21:12.715Z,90.29
2019-04-27T20:23:41.265Z,90.24
2019-04-27T20:26:09.771Z,90.07
2019-04-27T20:28:38.645Z,89.57
2019-04-27T20:31:07.240Z,89.65
2019-04-27T20:33:35.749Z,90.58
2019-04-27T20:36:04.369Z,90.86
2019-04-27T20:38:33.068Z,90.97
2019-04-27T20:41:01.578Z,90.97
2019-04-27T20:43:31.816Z,91.12
2019-04-27T20:46:00.934Z,91.23
2019-04-27T20:48:31.186Z,91.38
2019-04-27T20:51:01.306Z,91.65
2019-04-27T20:53:36.231Z,91.49
2019-04-27T20:56:05.076Z,91.43
2019-04-27T20:58:33.610Z,91.04
2019-04-27T21:01:04.743Z,91.40
2019-04-27T21:03:37.783Z,91.35
2019-04-27T21:06:26.115Z,91.44
2019-04-27T21:08:54.766Z,91.73
2019-04-27T21:11:23.338Z,91.73
2019-04-27T21:13:53.466Z,91.89
2019-04-27T21:16:22.516Z,91.60
2019-04-27T21:18:51.337Z,90.68
2019-04-27T21:21:21.559Z,90.28
2019-04-27T21:23:51.476Z,90.47
2019-04-27T21:26:21.468Z,90.57
2019-04-27T21:28:51.374Z,90.21
2019-04-27T21:31:21.335Z,90.29
2019-04-27T21:33:49.959Z,89.99
2019-04-27T21:36:18.554Z,89.51
2019-04-27T21:38:47.097Z,89.82
2019-04-27T21:41:15.724Z,90.50
2019-04-27T21:43:44.352Z,91.63
2019-04-27T21:46:12.873Z,91.03
2019-04-27T21:48:41.624Z,90.43
2019-04-27T21:51:11.853Z,91.20
2019-04-27T21:53:59.222Z,91.05
2019-04-27T21:56:27.746Z,91.21
2019-04-27T21:58:56.284Z,91.37
2019-04-27T22:01:28.068Z,91.61
2019-04-27T22:03:56.815Z,91.22
2019-04-27T22:06:25.434Z,91.70
2019-04-27T22:08:54.057Z,91.48
2019-04-27T22:11:23.000Z,91.81
2019-04-27T22:13:51.757Z,92.05
2019-04-27T22:16:21.323Z,91.89
2019-04-27T22:18:51.857Z,91.92
2019-04-27T22:21:21.641Z,91.20
2019-04-27T22:24:08.477Z,89.34
2019-04-27T22:26:37.216Z,89.57
2019-04-27T22:29:05.834Z,90.03
2019-04-27T22:31:34.443Z,90.26
2019-04-27T22:34:03.189Z,89.15
2019-04-27T22:36:31.699Z,89.34
2019-04-27T22:39:08.866Z,89.56
2019-04-27T22:41:45.382Z,88.87
2019-04-27T22:44:33.554Z,88.09
2019-04-27T22:47:02.302Z,89.10
2019-04-27T22:49:31.324Z,88.88
2019-04-27T22:52:01.494Z,87.64
2019-04-27T22:54:31.900Z,87.30
2019-04-27T22:57:05.043Z,87.49
2019-04-27T22:59:53.513Z,87.30
2019-04-27T23:02:40.426Z,87.12
2019-04-27T23:05:10.853Z,86.64
2019-04-27T23:07:41.345Z,86.92
2019-04-27T23:10:11.286Z,85.74
2019-04-27T23:12:41.816Z,85.08
2019-04-27T23:15:15.473Z,85.28
2019-04-27T23:18:03.816Z,85.81
2019-04-27T23:20:32.421Z,84.83
2019-04-27T23:23:02.793Z,84.60
2019-04-27T23:25:31.487Z,84.55
2019-04-27T23:28:00.092Z,84.00
2019-04-27T23:30:36.618Z,83.90
2019-04-27T23:33:05.154Z,83.90
2019-04-27T23:35:33.695Z,83.62
2019-04-27T23:38:14.786Z,83.34
2019-04-27T23:40:32.836Z,83.39
2019-04-27T23:43:01.702Z,82.01
2019-04-27T23:45:31.850Z,81.21
2019-04-27T23:48:00.531Z,80.79
2019-04-27T23:50:31.434Z,80.86
2019-04-27T23:53:05.445Z,81.08
2019-04-27T23:55:35.071Z,80.78
2019-04-27T23:58:03.787Z,80.40
